Terminal Aerodrome Forecast
Issued by NWS

Home | Current Version | Previous Version | Text Only | Print | Product List | Glossary On
Versions: 1 2 3 4 5 6 7 8 9 10 11 12 13 14 15 16 17 18 19 20 21 22 23 24 25 26 27 28 29 30 31 32 33 34 35
000
FTUS43 KGLD 050257 AAB
TAFMCK
TAF AMD
KMCK 050257Z 0503/0524 06012KT P6SM -SHRA VCTS OVC007CB
     FM050500 07008KT 6SM -SHRA VCTS OVC004CB
     FM050900 10009KT 4SM BR VCTS OVC004CB
     FM051500 14015KT 6SM BR VCTS OVC007CB
     FM051800 16015G25KT P6SM VCTS OVC025CB=

USA.gov is the U.S. government's official web portal to all federal, state and local government web resources and services.